sensor_id;sensor_type;location;lat;lon;timestamp;temperature;humidity
21770;DHT22;11046;49.558;8.674;2023-01-15T00:00:44;9.30;99.90
21770;DHT22;11046;49.558;8.674;2023-01-15T00:03:45;9.30;99.90
21770;DHT22;11046;49.558;8.674;2023-01-15T00:06:45;9.30;99.90
21770;DHT22;11046;49.558;8.674;2023-01-15T00:09:46;9.20;99.90
21770;DHT22;11046;49.558;8.674;2023-01-15T00:12:47;9.20;99.90
21770;DHT22;11046;49.558;8.674;2023-01-15T00:15:47;9.30;99.90
21770;DHT22;11046;49.558;8.674;2023-01-15T00:18:59;9.20;99.90
21770;DHT22;11046;49.558;8.674;2023-01-15T00:22:00;9.30;99.90
21770;DHT22;11046;49.558;8.674;2023-01-15T00:25:01;9.20;99.90
21770;DHT22;11046;49.558;8.674;2023-01-15T00:28:20;9.30;99.90
21770;DHT22;11046;49.558;8.674;2023-01-15T00:31:20;9.30;99.90
21770;DHT22;11046;49.558;8.674;2023-01-15T00:34:21;9.30;99.90
21770;DHT22;11046;49.558;8.674;2023-01-15T00:37:22;9.30;99.90
21770;DHT22;11046;49.558;8.674;2023-01-15T00:40:23;9.30;99.90
21770;DHT22;11046;49.558;8.674;2023-01-15T00:43:25;9.30;99.90
21770;DHT22;11046;49.558;8.674;2023-01-15T00:46:25;9.30;99.90
21770;DHT22;11046;49.558;8.674;2023-01-15T00:49:26;9.40;99.90
21770;DHT22;11046;49.558;8.674;2023-01-15T00:52:27;9.40;99.90
21770;DHT22;11046;49.558;8.674;2023-01-15T00:55:27;9.40;99.90
21770;DHT22;11046;49.558;8.674;2023-01-15T00:58:28;9.40;99.90
21770;DHT22;11046;49.558;8.674;2023-01-15T01:01:29;9.40;99.90
21770;DHT22;11046;49.558;8.674;2023-01-15T01:04:29;9.40;99.90
21770;DHT22;11046;49.558;8.674;2023-01-15T01:07:30;9.40;99.90
21770;DHT22;11046;49.558;8.674;2023-01-15T01:10:30;9.40;99.90
21770;DHT22;11046;49.558;8.674;2023-01-15T01:13:32;9.40;99.90
21770;DHT22;11046;49.558;8.674;2023-01-15T01:16:35;9.40;99.90
21770;DHT22;11046;49.558;8.674;2023-01-15T01:19:36;9.40;99.90
21770;DHT22;11046;49.558;8.674;2023-01-15T01:22:37;9.40;99.90
21770;DHT22;11046;49.558;8.674;2023-01-15T01:25:38;9.50;99.90
21770;DHT22;11046;49.558;8.674;2023-01-15T01:28:39;9.40;99.90
21770;DHT22;11046;49.558;8.674;2023-01-15T01:31:40;9.40;99.90
21770;DHT22;11046;49.558;8.674;2023-01-15T01:34:41;9.40;99.90
21770;DHT22;11046;49.558;8.674;2023-01-15T01:37:42;9.30;99.90
21770;DHT22;11046;49.558;8.674;2023-01-15T01:40:42;9.40;99.90
21770;DHT22;11046;49.558;8.674;2023-01-15T01:46:55;9.30;99.90
21770;DHT22;11046;49.558;8.674;2023-01-15T01:50:03;9.30;99.90
21770;DHT22;11046;49.558;8.674;2023-01-15T01:53:15;9.40;99.90
21770;DHT22;11046;49.558;8.674;2023-01-15T01:56:17;9.30;99.90
21770;DHT22;11046;49.558;8.674;2023-01-15T01:59:20;9.40;99.90
21770;DHT22;11046;49.558;8.674;2023-01-15T02:02:21;9.30;99.90
21770;DHT22;11046;49.558;8.674;2023-01-15T02:05:28;9.30;99.90
21770;DHT22;11046;49.558;8.674;2023-01-15T02:08:29;9.30;99.90
21770;DHT22;11046;49.558;8.674;2023-01-15T02:11:32;9.30;99.90
21770;DHT22;11046;49.558;8.674;2023-01-15T02:17:55;9.30;99.90
21770;DHT22;11046;49.558;8.674;2023-01-15T02:27:47;9.20;99.90
21770;DHT22;11046;49.558;8.674;2023-01-15T02:30:57;9.20;99.90
21770;DHT22;11046;49.558;8.674;2023-01-15T02:34:05;9.20;99.90
21770;DHT22;11046;49.558;8.674;2023-01-15T02:37:12;9.30;99.90
21770;DHT22;11046;49.558;8.674;2023-01-15T02:40:18;9.30;99.90
21770;DHT22;11046;49.558;8.674;2023-01-15T02:43:21;9.30;99.90
21770;DHT22;11046;49.558;8.674;2023-01-15T02:46:26;9.30;99.90
21770;DHT22;11046;49.558;8.674;2023-01-15T02:49:28;9.30;99.90
21770;DHT22;11046;49.558;8.674;2023-01-15T02:52:40;9.30;99.90
21770;DHT22;11046;49.558;8.674;2023-01-15T02:55:43;9.30;99.90
21770;DHT22;11046;49.558;8.674;2023-01-15T02:58:50;9.30;99.90
21770;DHT22;11046;49.558;8.674;2023-01-15T03:01:57;9.30;99.90
21770;DHT22;11046;49.558;8.674;2023-01-15T03:05:07;9.30;99.90
21770;DHT22;11046;49.558;8.674;2023-01-15T03:08:10;9.30;99.90
21770;DHT22;11046;49.558;8.674;2023-01-15T03:11:14;9.20;99.90
21770;DHT22;11046;49.558;8.674;2023-01-15T03:14:35;9.10;99.90
21770;DHT22;11046;49.558;8.674;2023-01-15T03:18:13;9.10;99.90
21770;DHT22;11046;49.558;8.674;2023-01-15T03:21:10;8.90;99.90
21770;DHT22;11046;49.558;8.674;2023-01-15T03:24:17;8.80;99.90
21770;DHT22;11046;49.558;8.674;2023-01-15T03:27:19;8.70;99.90
21770;DHT22;11046;49.558;8.674;2023-01-15T03:30:24;8.70;99.90
21770;DHT22;11046;49.558;8.674;2023-01-15T03:33:26;8.60;99.90
21770;DHT22;11046;49.558;8.674;2023-01-15T03:36:28;8.60;99.90
21770;DHT22;11046;49.558;8.674;2023-01-15T03:39:34;8.60;99.90
21770;DHT22;11046;49.558;8.674;2023-01-15T03:42:49;8.50;99.90
21770;DHT22;11046;49.558;8.674;2023-01-15T03:46:52;8.50;99.90
21770;DHT22;11046;49.558;8.674;2023-01-15T03:50:12;8.50;99.90
21770;DHT22;11046;49.558;8.674;2023-01-15T03:53:32;8.40;99.90
21770;DHT22;11046;49.558;8.674;2023-01-15T03:56:49;8.40;99.90
21770;DHT22;11046;49.558;8.674;2023-01-15T03:59:58;8.40;99.90
21770;DHT22;11046;49.558;8.674;2023-01-15T04:03:06;8.40;99.90
21770;DHT22;11046;49.558;8.674;2023-01-15T04:06:09;8.30;99.90
21770;DHT22;11046;49.558;8.674;2023-01-15T04:09:12;8.30;99.90
21770;DHT22;11046;49.558;8.674;2023-01-15T04:12:16;8.30;99.90
21770;DHT22;11046;49.558;8.674;2023-01-15T04:15:21;8.30;99.90
21770;DHT22;11046;49.558;8.674;2023-01-15T04:18:22;8.30;99.90
21770;DHT22;11046;49.558;8.674;2023-01-15T04:21:23;8.30;99.90
21770;DHT22;11046;49.558;8.674;2023-01-15T04:24:24;8.30;99.90
21770;DHT22;11046;49.558;8.674;2023-01-15T04:27:25;8.30;99.90
21770;DHT22;11046;49.558;8.674;2023-01-15T04:30:26;8.10;99.90
21770;DHT22;11046;49.558;8.674;2023-01-15T04:33:27;8.10;99.90
21770;DHT22;11046;49.558;8.674;2023-01-15T04:36:27;8.00;99.90
21770;DHT22;11046;49.558;8.674;2023-01-15T04:39:28;8.00;99.90
21770;DHT22;11046;49.558;8.674;2023-01-15T04:42:29;7.90;99.90
21770;DHT22;11046;49.558;8.674;2023-01-15T04:45:48;7.80;99.90
21770;DHT22;11046;49.558;8.674;2023-01-15T04:48:48;7.90;99.90
21770;DHT22;11046;49.558;8.674;2023-01-15T04:51:49;7.80;99.90
21770;DHT22;11046;49.558;8.674;2023-01-15T04:54:49;7.80;99.90
21770;DHT22;11046;49.558;8.674;2023-01-15T04:57:50;7.70;99.90
21770;DHT22;11046;49.558;8.674;2023-01-15T05:00:50;7.70;99.90
21770;DHT22;11046;49.558;8.674;2023-01-15T05:03:51;7.70;99.90
21770;DHT22;11046;49.558;8.674;2023-01-15T05:06:51;7.60;99.90
21770;DHT22;11046;49.558;8.674;2023-01-15T05:09:52;7.60;99.90
21770;DHT22;11046;49.558;8.674;2023-01-15T05:12:54;7.60;99.90
21770;DHT22;11046;49.558;8.674;2023-01-15T05:15:54;7.60;99.90
21770;DHT22;11046;49.558;8.674;2023-01-15T05:18:58;7.50;99.90
21770;DHT22;11046;49.558;8.674;2023-01-15T05:21:59;7.50;99.90
21770;DHT22;11046;49.558;8.674;2023-01-15T05:24:59;7.60;99.90
21770;DHT22;11046;49.558;8.674;2023-01-15T05:28:00;7.60;99.90
21770;DHT22;11046;49.558;8.674;2023-01-15T05:31:08;7.50;99.90
21770;DHT22;11046;49.558;8.674;2023-01-15T05:34:10;7.40;99.90
21770;DHT22;11046;49.558;8.674;2023-01-15T05:37:10;7.40;99.90
21770;DHT22;11046;49.558;8.674;2023-01-15T05:40:11;7.40;99.90
21770;DHT22;11046;49.558;8.674;2023-01-15T05:43:12;7.40;99.90
21770;DHT22;11046;49.558;8.674;2023-01-15T05:46:12;7.40;99.90
21770;DHT22;11046;49.558;8.674;2023-01-15T05:49:17;7.40;99.90
21770;DHT22;11046;49.558;8.674;2023-01-15T05:52:18;7.30;99.90
21770;DHT22;11046;49.558;8.674;2023-01-15T05:55:18;7.30;99.90
21770;DHT22;11046;49.558;8.674;2023-01-15T05:58:19;7.20;99.90
21770;DHT22;11046;49.558;8.674;2023-01-15T06:01:20;7.10;99.90
21770;DHT22;11046;49.558;8.674;2023-01-15T06:04:22;7.10;99.90
21770;DHT22;11046;49.558;8.674;2023-01-15T06:07:24;7.10;99.90
21770;DHT22;11046;49.558;8.674;2023-01-15T06:10:25;7.10;99.90
21770;DHT22;11046;49.558;8.674;2023-01-15T06:13:25;7.00;99.90
21770;DHT22;11046;49.558;8.674;2023-01-15T06:16:26;7.00;99.90
21770;DHT22;11046;49.558;8.674;2023-01-15T06:19:27;6.90;99.90
21770;DHT22;11046;49.558;8.674;2023-01-15T06:22:27;6.90;99.90
21770;DHT22;11046;49.558;8.674;2023-01-15T06:25:31;6.80;99.90
21770;DHT22;11046;49.558;8.674;2023-01-15T06:28:34;6.80;99.90
21770;DHT22;11046;49.558;8.674;2023-01-15T06:31:35;6.70;99.90
21770;DHT22;11046;49.558;8.674;2023-01-15T06:34:36;6.70;99.90
21770;DHT22;11046;49.558;8.674;2023-01-15T06:37:36;6.70;99.90
21770;DHT22;11046;49.558;8.674;2023-01-15T06:40:37;6.70;99.90
21770;DHT22;11046;49.558;8.674;2023-01-15T06:43:39;6.60;99.90
21770;DHT22;11046;49.558;8.674;2023-01-15T06:47:10;6.60;99.90
21770;DHT22;11046;49.558;8.674;2023-01-15T06:50:21;6.60;99.90
21770;DHT22;11046;49.558;8.674;2023-01-15T06:53:21;6.50;99.90
21770;DHT22;11046;49.558;8.674;2023-01-15T06:56:22;6.50;99.90
21770;DHT22;11046;49.558;8.674;2023-01-15T06:59:23;6.50;99.90
21770;DHT22;11046;49.558;8.674;2023-01-15T07:02:23;6.40;99.90
21770;DHT22;11046;49.558;8.674;2023-01-15T07:05:24;6.40;99.90
21770;DHT22;11046;49.558;8.674;2023-01-15T07:08:26;6.50;99.90
21770;DHT22;11046;49.558;8.674;2023-01-15T07:11:26;6.50;99.90
21770;DHT22;11046;49.558;8.674;2023-01-15T07:14:27;6.50;99.90
21770;DHT22;11046;49.558;8.674;2023-01-15T07:17:28;6.60;99.90
21770;DHT22;11046;49.558;8.674;2023-01-15T07:20:29;6.60;99.90
21770;DHT22;11046;49.558;8.674;2023-01-15T07:23:29;6.60;99.90
21770;DHT22;11046;49.558;8.674;2023-01-15T07:26:30;6.50;99.90
21770;DHT22;11046;49.558;8.674;2023-01-15T07:29:30;6.50;99.90
21770;DHT22;11046;49.558;8.674;2023-01-15T07:32:31;6.60;99.90
21770;DHT22;11046;49.558;8.674;2023-01-15T07:35:32;6.50;99.90
21770;DHT22;11046;49.558;8.674;2023-01-15T07:38:35;6.40;99.90
21770;DHT22;11046;49.558;8.674;2023-01-15T07:41:36;6.40;99.90
21770;DHT22;11046;49.558;8.674;2023-01-15T07:44:56;6.40;99.90
21770;DHT22;11046;49.558;8.674;2023-01-15T07:48:15;6.40;99.90
21770;DHT22;11046;49.558;8.674;2023-01-15T07:51:34;6.50;99.90
21770;DHT22;11046;49.558;8.674;2023-01-15T07:54:36;6.50;99.90
21770;DHT22;11046;49.558;8.674;2023-01-15T07:57:37;6.50;99.90
21770;DHT22;11046;49.558;8.674;2023-01-15T08:00:38;6.40;99.90
21770;DHT22;11046;49.558;8.674;2023-01-15T08:03:38;6.40;99.90
21770;DHT22;11046;49.558;8.674;2023-01-15T08:06:39;6.30;99.90
21770;DHT22;11046;49.558;8.674;2023-01-15T08:09:40;6.30;99.90
21770;DHT22;11046;49.558;8.674;2023-01-15T08:12:40;6.30;99.90
21770;DHT22;11046;49.558;8.674;2023-01-15T08:15:59;6.20;99.90
21770;DHT22;11046;49.558;8.674;2023-01-15T08:19:00;6.10;99.90
21770;DHT22;11046;49.558;8.674;2023-01-15T08:22:00;6.20;99.90
21770;DHT22;11046;49.558;8.674;2023-01-15T08:25:01;6.20;99.90
21770;DHT22;11046;49.558;8.674;2023-01-15T08:28:01;6.20;99.90
21770;DHT22;11046;49.558;8.674;2023-01-15T08:31:05;6.20;99.90
21770;DHT22;11046;49.558;8.674;2023-01-15T08:34:06;6.20;99.90
21770;DHT22;11046;49.558;8.674;2023-01-15T08:37:07;6.20;99.90
21770;DHT22;11046;49.558;8.674;2023-01-15T08:40:09;6.10;99.90
21770;DHT22;11046;49.558;8.674;2023-01-15T08:43:10;6.10;99.90
21770;DHT22;11046;49.558;8.674;2023-01-15T08:46:11;6.10;99.90
21770;DHT22;11046;49.558;8.674;2023-01-15T08:49:11;6.00;99.90
21770;DHT22;11046;49.558;8.674;2023-01-15T08:52:12;6.00;99.90
21770;DHT22;11046;49.558;8.674;2023-01-15T08:55:12;6.00;99.90
21770;DHT22;11046;49.558;8.674;2023-01-15T08:58:14;6.00;99.90
21770;DHT22;11046;49.558;8.674;2023-01-15T09:01:15;6.00;99.90
21770;DHT22;11046;49.558;8.674;2023-01-15T09:04:17;6.00;99.90
21770;DHT22;11046;49.558;8.674;2023-01-15T09:07:19;5.90;99.90
21770;DHT22;11046;49.558;8.674;2023-01-15T09:10:20;5.90;99.90
21770;DHT22;11046;49.558;8.674;2023-01-15T09:13:20;5.90;99.90
21770;DHT22;11046;49.558;8.674;2023-01-15T09:16:21;5.90;99.90
21770;DHT22;11046;49.558;8.674;2023-01-15T09:19:22;6.00;99.90
21770;DHT22;11046;49.558;8.674;2023-01-15T09:22:22;5.90;99.90
21770;DHT22;11046;49.558;8.674;2023-01-15T09:25:24;5.90;99.90
21770;DHT22;11046;49.558;8.674;2023-01-15T09:28:26;5.90;99.90
21770;DHT22;11046;49.558;8.674;2023-01-15T09:31:26;5.90;99.90
21770;DHT22;11046;49.558;8.674;2023-01-15T09:34:27;5.90;99.90
21770;DHT22;11046;49.558;8.674;2023-01-15T09:37:28;5.80;99.90
21770;DHT22;11046;49.558;8.674;2023-01-15T09:47:50;5.90;99.90
21770;DHT22;11046;49.558;8.674;2023-01-15T09:57:32;6.00;99.90
21770;DHT22;11046;49.558;8.674;2023-01-15T10:00:46;6.00;99.90
21770;DHT22;11046;49.558;8.674;2023-01-15T10:03:51;6.00;99.90
21770;DHT22;11046;49.558;8.674;2023-01-15T10:10:32;6.10;99.90
21770;DHT22;11046;49.558;8.674;2023-01-15T10:14:00;6.10;99.90
21770;DHT22;11046;49.558;8.674;2023-01-15T10:17:01;6.00;99.90
21770;DHT22;11046;49.558;8.674;2023-01-15T10:20:01;6.00;99.90
21770;DHT22;11046;49.558;8.674;2023-01-15T10:26:36;5.90;99.90
21770;DHT22;11046;49.558;8.674;2023-01-15T10:29:41;6.00;99.90
21770;DHT22;11046;49.558;8.674;2023-01-15T10:32:51;5.90;99.90
21770;DHT22;11046;49.558;8.674;2023-01-15T10:35:59;5.80;99.90
21770;DHT22;11046;49.558;8.674;2023-01-15T10:39:29;5.50;99.90
21770;DHT22;11046;49.558;8.674;2023-01-15T10:46:12;4.90;99.90
21770;DHT22;11046;49.558;8.674;2023-01-15T10:49:15;4.90;99.90
21770;DHT22;11046;49.558;8.674;2023-01-15T10:52:28;4.90;99.90
21770;DHT22;11046;49.558;8.674;2023-01-15T10:55:51;4.90;99.90
21770;DHT22;11046;49.558;8.674;2023-01-15T11:02:33;4.90;99.90
21770;DHT22;11046;49.558;8.674;2023-01-15T11:05:37;4.80;99.90
21770;DHT22;11046;49.558;8.674;2023-01-15T11:08:39;4.90;99.90
21770;DHT22;11046;49.558;8.674;2023-01-15T11:11:53;4.90;99.90
21770;DHT22;11046;49.558;8.674;2023-01-15T11:14:59;4.80;99.90
21770;DHT22;11046;49.558;8.674;2023-01-15T11:18:28;4.80;99.90
21770;DHT22;11046;49.558;8.674;2023-01-15T11:21:48;4.80;99.90
21770;DHT22;11046;49.558;8.674;2023-01-15T11:24:54;4.70;99.90
21770;DHT22;11046;49.558;8.674;2023-01-15T11:27:58;4.70;99.90
21770;DHT22;11046;49.558;8.674;2023-01-15T11:30:59;4.70;99.90
21770;DHT22;11046;49.558;8.674;2023-01-15T11:34:03;4.60;99.90
21770;DHT22;11046;49.558;8.674;2023-01-15T11:37:04;4.60;99.90
21770;DHT22;11046;49.558;8.674;2023-01-15T11:40:19;4.60;99.90
21770;DHT22;11046;49.558;8.674;2023-01-15T11:43:23;4.60;99.90
21770;DHT22;11046;49.558;8.674;2023-01-15T11:46:45;4.60;99.90
21770;DHT22;11046;49.558;8.674;2023-01-15T11:50:22;4.60;99.90
21770;DHT22;11046;49.558;8.674;2023-01-15T11:53:53;4.60;99.90
21770;DHT22;11046;49.558;8.674;2023-01-15T11:56:54;4.40;99.90
21770;DHT22;11046;49.558;8.674;2023-01-15T11:59:56;4.30;99.90
21770;DHT22;11046;49.558;8.674;2023-01-15T12:03:01;4.30;99.90
21770;DHT22;11046;49.558;8.674;2023-01-15T12:06:09;4.20;99.90
21770;DHT22;11046;49.558;8.674;2023-01-15T12:09:32;4.20;99.90
21770;DHT22;11046;49.558;8.674;2023-01-15T12:12:49;4.10;99.90
21770;DHT22;11046;49.558;8.674;2023-01-15T12:16:23;4.20;99.90
21770;DHT22;11046;49.558;8.674;2023-01-15T12:19:33;4.20;99.90
21770;DHT22;11046;49.558;8.674;2023-01-15T12:23:06;4.10;99.90
21770;DHT22;11046;49.558;8.674;2023-01-15T12:29:52;4.20;99.90
21770;DHT22;11046;49.558;8.674;2023-01-15T12:36:24;4.30;99.90
21770;DHT22;11046;49.558;8.674;2023-01-15T12:39:34;4.40;99.90
21770;DHT22;11046;49.558;8.674;2023-01-15T12:42:36;4.60;99.90
21770;DHT22;11046;49.558;8.674;2023-01-15T12:45:56;4.80;99.90
21770;DHT22;11046;49.558;8.674;2023-01-15T12:49:27;4.90;99.90
21770;DHT22;11046;49.558;8.674;2023-01-15T12:52:39;5.10;99.90
21770;DHT22;11046;49.558;8.674;2023-01-15T12:55:53;5.30;99.90
21770;DHT22;11046;49.558;8.674;2023-01-15T13:02:35;5.40;99.90
21770;DHT22;11046;49.558;8.674;2023-01-15T13:05:51;5.30;99.90
21770;DHT22;11046;49.558;8.674;2023-01-15T13:09:05;5.30;99.90
21770;DHT22;11046;49.558;8.674;2023-01-15T13:12:13;5.30;99.90
21770;DHT22;11046;49.558;8.674;2023-01-15T13:15:15;5.30;99.90
21770;DHT22;11046;49.558;8.674;2023-01-15T13:18:48;5.20;99.90
21770;DHT22;11046;49.558;8.674;2023-01-15T13:21:54;5.10;99.90
21770;DHT22;11046;49.558;8.674;2023-01-15T13:31:57;5.20;99.90
21770;DHT22;11046;49.558;8.674;2023-01-15T13:35:05;5.30;99.90
21770;DHT22;11046;49.558;8.674;2023-01-15T13:38:18;5.50;99.90
21770;DHT22;11046;49.558;8.674;2023-01-15T13:41:23;5.60;99.90
21770;DHT22;11046;49.558;8.674;2023-01-15T13:44:48;5.70;99.90
21770;DHT22;11046;49.558;8.674;2023-01-15T13:47:51;5.80;99.90
21770;DHT22;11046;49.558;8.674;2023-01-15T13:50:55;5.90;99.90
21770;DHT22;11046;49.558;8.674;2023-01-15T13:53:59;5.90;99.90
21770;DHT22;11046;49.558;8.674;2023-01-15T13:57:23;6.00;99.90
21770;DHT22;11046;49.558;8.674;2023-01-15T14:00:33;6.00;99.90
21770;DHT22;11046;49.558;8.674;2023-01-15T14:03:36;6.10;99.90
21770;DHT22;11046;49.558;8.674;2023-01-15T14:09:42;6.20;99.90
21770;DHT22;11046;49.558;8.674;2023-01-15T14:16:38;6.30;99.90
21770;DHT22;11046;49.558;8.674;2023-01-15T14:23:19;6.40;99.90
21770;DHT22;11046;49.558;8.674;2023-01-15T14:30:17;6.40;99.90
21770;DHT22;11046;49.558;8.674;2023-01-15T14:36:50;6.50;99.90
21770;DHT22;11046;49.558;8.674;2023-01-15T14:39:57;6.50;99.90
21770;DHT22;11046;49.558;8.674;2023-01-15T14:43:05;6.50;99.90
21770;DHT22;11046;49.558;8.674;2023-01-15T14:46:12;6.30;99.90
21770;DHT22;11046;49.558;8.674;2023-01-15T14:49:30;6.20;99.90
21770;DHT22;11046;49.558;8.674;2023-01-15T14:52:31;6.20;99.90
21770;DHT22;11046;49.558;8.674;2023-01-15T14:55:35;6.20;99.90
21770;DHT22;11046;49.558;8.674;2023-01-15T14:58:46;6.10;99.90
21770;DHT22;11046;49.558;8.674;2023-01-15T15:01:49;6.10;99.90
21770;DHT22;11046;49.558;8.674;2023-01-15T15:04:53;6.00;99.90
21770;DHT22;11046;49.558;8.674;2023-01-15T15:07:55;6.00;99.90
21770;DHT22;11046;49.558;8.674;2023-01-15T15:10:57;6.00;99.90
21770;DHT22;11046;49.558;8.674;2023-01-15T15:13:59;5.90;99.90
21770;DHT22;11046;49.558;8.674;2023-01-15T15:17:04;5.90;99.90
21770;DHT22;11046;49.558;8.674;2023-01-15T15:20:32;6.00;99.90
21770;DHT22;11046;49.558;8.674;2023-01-15T15:26:37;5.90;99.90
21770;DHT22;11046;49.558;8.674;2023-01-15T15:29:38;5.90;99.90
21770;DHT22;11046;49.558;8.674;2023-01-15T15:32:40;5.90;99.90
21770;DHT22;11046;49.558;8.674;2023-01-15T15:35:54;5.90;99.90
21770;DHT22;11046;49.558;8.674;2023-01-15T15:39:01;5.80;99.90
21770;DHT22;11046;49.558;8.674;2023-01-15T15:42:10;5.80;99.90
21770;DHT22;11046;49.558;8.674;2023-01-15T15:45:32;5.80;99.90
21770;DHT22;11046;49.558;8.674;2023-01-15T15:48:56;5.70;99.90
21770;DHT22;11046;49.558;8.674;2023-01-15T15:51:57;5.60;99.90
21770;DHT22;11046;49.558;8.674;2023-01-15T15:54:59;5.60;99.90
21770;DHT22;11046;49.558;8.674;2023-01-15T15:58:00;5.60;99.90
21770;DHT22;11046;49.558;8.674;2023-01-15T16:01:02;5.60;99.90
21770;DHT22;11046;49.558;8.674;2023-01-15T16:04:03;5.70;99.90
21770;DHT22;11046;49.558;8.674;2023-01-15T16:07:12;5.60;99.90
21770;DHT22;11046;49.558;8.674;2023-01-15T16:10:31;5.70;99.90
21770;DHT22;11046;49.558;8.674;2023-01-15T16:13:48;5.70;99.90
21770;DHT22;11046;49.558;8.674;2023-01-15T16:16:51;5.70;99.90
21770;DHT22;11046;49.558;8.674;2023-01-15T16:19:53;5.70;99.90
21770;DHT22;11046;49.558;8.674;2023-01-15T16:22:59;5.60;99.90
21770;DHT22;11046;49.558;8.674;2023-01-15T16:26:42;5.60;99.90
21770;DHT22;11046;49.558;8.674;2023-01-15T16:29:31;5.70;99.90
21770;DHT22;11046;49.558;8.674;2023-01-15T16:32:33;5.70;99.90
21770;DHT22;11046;49.558;8.674;2023-01-15T16:35:36;5.70;99.90
21770;DHT22;11046;49.558;8.674;2023-01-15T16:38:41;5.70;99.90
21770;DHT22;11046;49.558;8.674;2023-01-15T16:41:42;5.70;99.90
21770;DHT22;11046;49.558;8.674;2023-01-15T16:44:57;5.70;99.90
21770;DHT22;11046;49.558;8.674;2023-01-15T16:57:31;5.70;99.90
21770;DHT22;11046;49.558;8.674;2023-01-15T17:00:33;5.70;99.90
21770;DHT22;11046;49.558;8.674;2023-01-15T17:03:33;5.70;99.90
21770;DHT22;11046;49.558;8.674;2023-01-15T17:06:34;5.70;99.90
21770;DHT22;11046;49.558;8.674;2023-01-15T17:09:35;5.70;99.90
21770;DHT22;11046;49.558;8.674;2023-01-15T17:12:42;5.70;99.90
21770;DHT22;11046;49.558;8.674;2023-01-15T17:15:42;5.70;99.90
21770;DHT22;11046;49.558;8.674;2023-01-15T17:18:44;5.80;99.90
21770;DHT22;11046;49.558;8.674;2023-01-15T17:21:45;5.80;99.90
21770;DHT22;11046;49.558;8.674;2023-01-15T17:24:48;5.80;99.90
21770;DHT22;11046;49.558;8.674;2023-01-15T17:27:49;5.80;99.90
21770;DHT22;11046;49.558;8.674;2023-01-15T17:30:50;5.80;99.90
21770;DHT22;11046;49.558;8.674;2023-01-15T17:33:52;5.80;99.90
21770;DHT22;11046;49.558;8.674;2023-01-15T17:36:52;5.80;99.90
21770;DHT22;11046;49.558;8.674;2023-01-15T17:39:53;5.80;99.90
21770;DHT22;11046;49.558;8.674;2023-01-15T17:42:53;5.80;99.90
21770;DHT22;11046;49.558;8.674;2023-01-15T17:45:54;5.80;99.90
21770;DHT22;11046;49.558;8.674;2023-01-15T17:48:54;5.90;99.90
21770;DHT22;11046;49.558;8.674;2023-01-15T17:51:55;5.80;99.90
21770;DHT22;11046;49.558;8.674;2023-01-15T17:54:56;5.90;99.80
21770;DHT22;11046;49.558;8.674;2023-01-15T17:58:15;5.90;99.90
21770;DHT22;11046;49.558;8.674;2023-01-15T18:01:41;5.80;99.90
21770;DHT22;11046;49.558;8.674;2023-01-15T18:05:01;5.80;99.90
21770;DHT22;11046;49.558;8.674;2023-01-15T18:08:20;5.90;99.90
21770;DHT22;11046;49.558;8.674;2023-01-15T18:11:21;5.80;99.90
21770;DHT22;11046;49.558;8.674;2023-01-15T18:14:22;5.80;99.90
21770;DHT22;11046;49.558;8.674;2023-01-15T18:17:22;5.80;99.90
21770;DHT22;11046;49.558;8.674;2023-01-15T18:20:23;5.80;99.80
21770;DHT22;11046;49.558;8.674;2023-01-15T18:23:24;5.80;99.90
21770;DHT22;11046;49.558;8.674;2023-01-15T18:26:25;5.80;99.80
21770;DHT22;11046;49.558;8.674;2023-01-15T18:29:26;5.80;99.80
21770;DHT22;11046;49.558;8.674;2023-01-15T18:32:28;5.80;99.70
21770;DHT22;11046;49.558;8.674;2023-01-15T18:35:29;5.70;99.70
21770;DHT22;11046;49.558;8.674;2023-01-15T18:38:30;5.70;99.80
21770;DHT22;11046;49.558;8.674;2023-01-15T18:41:34;5.60;99.80
21770;DHT22;11046;49.558;8.674;2023-01-15T18:44:38;5.60;99.80
21770;DHT22;11046;49.558;8.674;2023-01-15T18:48:00;5.50;99.80
21770;DHT22;11046;49.558;8.674;2023-01-15T18:51:08;5.50;99.80
21770;DHT22;11046;49.558;8.674;2023-01-15T18:54:09;5.50;99.70
21770;DHT22;11046;49.558;8.674;2023-01-15T18:57:10;5.50;99.70
21770;DHT22;11046;49.558;8.674;2023-01-15T19:00:11;5.50;99.70
21770;DHT22;11046;49.558;8.674;2023-01-15T19:03:12;5.50;99.60
21770;DHT22;11046;49.558;8.674;2023-01-15T19:06:12;5.40;99.60
21770;DHT22;11046;49.558;8.674;2023-01-15T19:09:13;5.40;99.60
21770;DHT22;11046;49.558;8.674;2023-01-15T19:12:16;5.40;99.50
21770;DHT22;11046;49.558;8.674;2023-01-15T19:15:18;5.40;99.50
21770;DHT22;11046;49.558;8.674;2023-01-15T19:18:37;5.40;99.50
21770;DHT22;11046;49.558;8.674;2023-01-15T19:21:41;5.40;99.60
21770;DHT22;11046;49.558;8.674;2023-01-15T19:24:41;5.40;99.50
21770;DHT22;11046;49.558;8.674;2023-01-15T19:27:42;5.30;99.50
21770;DHT22;11046;49.558;8.674;2023-01-15T19:30:44;5.40;99.60
21770;DHT22;11046;49.558;8.674;2023-01-15T19:34:04;5.40;99.60
21770;DHT22;11046;49.558;8.674;2023-01-15T19:37:10;5.40;99.50
21770;DHT22;11046;49.558;8.674;2023-01-15T19:40:13;5.50;99.50
21770;DHT22;11046;49.558;8.674;2023-01-15T19:43:21;5.40;99.40
21770;DHT22;11046;49.558;8.674;2023-01-15T19:46:40;5.40;99.30
21770;DHT22;11046;49.558;8.674;2023-01-15T19:50:00;5.40;99.20
21770;DHT22;11046;49.558;8.674;2023-01-15T19:53:18;5.40;99.50
21770;DHT22;11046;49.558;8.674;2023-01-15T19:56:19;5.50;99.20
21770;DHT22;11046;49.558;8.674;2023-01-15T19:59:20;5.40;99.00
21770;DHT22;11046;49.558;8.674;2023-01-15T20:02:21;5.40;99.00
21770;DHT22;11046;49.558;8.674;2023-01-15T20:05:22;5.40;99.00
21770;DHT22;11046;49.558;8.674;2023-01-15T20:08:23;5.30;99.00
21770;DHT22;11046;49.558;8.674;2023-01-15T20:11:24;5.30;99.00
21770;DHT22;11046;49.558;8.674;2023-01-15T20:14:44;5.30;99.10
21770;DHT22;11046;49.558;8.674;2023-01-15T20:17:45;5.30;99.10
21770;DHT22;11046;49.558;8.674;2023-01-15T20:20:46;5.20;99.10
21770;DHT22;11046;49.558;8.674;2023-01-15T20:23:46;5.10;99.20
21770;DHT22;11046;49.558;8.674;2023-01-15T20:26:47;5.10;99.10
21770;DHT22;11046;49.558;8.674;2023-01-15T20:29:48;5.00;99.10
21770;DHT22;11046;49.558;8.674;2023-01-15T20:32:55;5.00;99.20
21770;DHT22;11046;49.558;8.674;2023-01-15T20:36:02;5.00;99.10
21770;DHT22;11046;49.558;8.674;2023-01-15T20:39:03;5.10;99.10
21770;DHT22;11046;49.558;8.674;2023-01-15T20:42:04;5.10;99.00
21770;DHT22;11046;49.558;8.674;2023-01-15T20:45:23;5.00;98.90
21770;DHT22;11046;49.558;8.674;2023-01-15T20:48:24;5.00;99.00
21770;DHT22;11046;49.558;8.674;2023-01-15T20:51:43;5.00;99.00
21770;DHT22;11046;49.558;8.674;2023-01-15T20:54:46;5.00;99.00
21770;DHT22;11046;49.558;8.674;2023-01-15T20:57:47;4.90;99.00
21770;DHT22;11046;49.558;8.674;2023-01-15T21:00:47;4.90;99.00
21770;DHT22;11046;49.558;8.674;2023-01-15T21:03:48;4.90;99.00
21770;DHT22;11046;49.558;8.674;2023-01-15T21:06:48;4.90;98.90
21770;DHT22;11046;49.558;8.674;2023-01-15T21:09:49;4.90;98.90
21770;DHT22;11046;49.558;8.674;2023-01-15T21:12:51;4.90;98.90
21770;DHT22;11046;49.558;8.674;2023-01-15T21:16:00;4.90;99.00
21770;DHT22;11046;49.558;8.674;2023-01-15T21:19:01;4.90;98.90